sensor_id;sensor_type;location;lat;lon;timestamp;temperature;humidity
81488;DHT22;70897;52.464;13.428;2023-12-29T00:02:34;8.10;99.90
81488;DHT22;70897;52.464;13.428;2023-12-29T00:05:19;8.10;99.90
81488;DHT22;70897;52.464;13.428;2023-12-29T00:08:05;8.10;99.90
81488;DHT22;70897;52.464;13.428;2023-12-29T00:10:50;8.10;99.90
81488;DHT22;70897;52.464;13.428;2023-12-29T00:13:35;8.10;99.90
81488;DHT22;70897;52.464;13.428;2023-12-29T00:16:20;8.20;99.90
81488;DHT22;70897;52.464;13.428;2023-12-29T00:19:05;8.20;99.90
81488;DHT22;70897;52.464;13.428;2023-12-29T00:21:50;8.10;99.90
81488;DHT22;70897;52.464;13.428;2023-12-29T00:24:35;8.20;99.90
81488;DHT22;70897;52.464;13.428;2023-12-29T00:27:20;8.20;99.90
81488;DHT22;70897;52.464;13.428;2023-12-29T00:30:06;8.20;99.90
81488;DHT22;70897;52.464;13.428;2023-12-29T00:32:51;8.20;99.90
81488;DHT22;70897;52.464;13.428;2023-12-29T00:35:37;8.20;99.90
81488;DHT22;70897;52.464;13.428;2023-12-29T00:38:24;8.20;99.90
81488;DHT22;70897;52.464;13.428;2023-12-29T00:41:09;8.20;99.90
81488;DHT22;70897;52.464;13.428;2023-12-29T00:43:54;8.20;99.90
81488;DHT22;70897;52.464;13.428;2023-12-29T00:46:39;8.20;99.90
81488;DHT22;70897;52.464;13.428;2023-12-29T00:49:24;8.20;99.90
81488;DHT22;70897;52.464;13.428;2023-12-29T00:52:09;8.20;99.90
81488;DHT22;70897;52.464;13.428;2023-12-29T00:54:54;8.20;99.90
81488;DHT22;70897;52.464;13.428;2023-12-29T00:57:39;8.20;99.90
81488;DHT22;70897;52.464;13.428;2023-12-29T01:00:25;8.20;99.90
81488;DHT22;70897;52.464;13.428;2023-12-29T01:03:09;8.20;99.90
81488;DHT22;70897;52.464;13.428;2023-12-29T01:05:55;8.20;99.90
81488;DHT22;70897;52.464;13.428;2023-12-29T01:08:40;8.20;99.90
81488;DHT22;70897;52.464;13.428;2023-12-29T01:11:25;8.20;99.90
81488;DHT22;70897;52.464;13.428;2023-12-29T01:14:10;8.20;99.90
81488;DHT22;70897;52.464;13.428;2023-12-29T01:16:55;8.10;99.90
81488;DHT22;70897;52.464;13.428;2023-12-29T01:19:40;8.10;99.90
81488;DHT22;70897;52.464;13.428;2023-12-29T01:22:26;8.10;99.90
81488;DHT22;70897;52.464;13.428;2023-12-29T01:25:11;8.20;99.90
81488;DHT22;70897;52.464;13.428;2023-12-29T01:27:56;8.20;99.90
81488;DHT22;70897;52.464;13.428;2023-12-29T01:30:41;8.10;99.90
81488;DHT22;70897;52.464;13.428;2023-12-29T01:33:26;8.20;99.90
81488;DHT22;70897;52.464;13.428;2023-12-29T01:36:18;8.20;99.90
81488;DHT22;70897;52.464;13.428;2023-12-29T01:39:03;8.10;99.90
81488;DHT22;70897;52.464;13.428;2023-12-29T01:41:48;8.20;99.90
81488;DHT22;70897;52.464;13.428;2023-12-29T01:44:33;8.20;99.90
81488;DHT22;70897;52.464;13.428;2023-12-29T01:47:19;8.20;99.90
81488;DHT22;70897;52.464;13.428;2023-12-29T01:50:04;8.20;99.90
81488;DHT22;70897;52.464;13.428;2023-12-29T01:52:50;8.20;99.90
81488;DHT22;70897;52.464;13.428;2023-12-29T01:55:37;8.30;99.90
81488;DHT22;70897;52.464;13.428;2023-12-29T01:58:22;8.30;99.90
81488;DHT22;70897;52.464;13.428;2023-12-29T02:01:07;8.30;99.90
81488;DHT22;70897;52.464;13.428;2023-12-29T02:03:53;8.20;99.90
81488;DHT22;70897;52.464;13.428;2023-12-29T02:06:39;8.20;99.90
81488;DHT22;70897;52.464;13.428;2023-12-29T02:09:24;8.30;99.90
81488;DHT22;70897;52.464;13.428;2023-12-29T02:12:09;8.30;99.90
81488;DHT22;70897;52.464;13.428;2023-12-29T02:14:54;8.30;99.90
81488;DHT22;70897;52.464;13.428;2023-12-29T02:17:54;8.40;99.90
81488;DHT22;70897;52.464;13.428;2023-12-29T02:20:43;8.30;99.90
81488;DHT22;70897;52.464;13.428;2023-12-29T02:23:29;8.30;99.90
81488;DHT22;70897;52.464;13.428;2023-12-29T02:26:15;8.30;99.90
81488;DHT22;70897;52.464;13.428;2023-12-29T02:29:02;8.30;99.90
81488;DHT22;70897;52.464;13.428;2023-12-29T02:31:52;8.30;99.90
81488;DHT22;70897;52.464;13.428;2023-12-29T02:34:40;8.30;99.90
81488;DHT22;70897;52.464;13.428;2023-12-29T02:37:27;8.30;99.90
81488;DHT22;70897;52.464;13.428;2023-12-29T02:40:14;8.30;99.90
81488;DHT22;70897;52.464;13.428;2023-12-29T02:42:59;8.30;99.90
81488;DHT22;70897;52.464;13.428;2023-12-29T02:45:45;8.30;99.90
81488;DHT22;70897;52.464;13.428;2023-12-29T02:48:30;8.30;99.90
81488;DHT22;70897;52.464;13.428;2023-12-29T02:51:15;8.30;99.90
81488;DHT22;70897;52.464;13.428;2023-12-29T02:54:00;8.30;99.90
81488;DHT22;70897;52.464;13.428;2023-12-29T02:56:45;8.30;99.90
81488;DHT22;70897;52.464;13.428;2023-12-29T02:59:30;8.30;99.90
81488;DHT22;70897;52.464;13.428;2023-12-29T03:02:15;8.40;99.90
81488;DHT22;70897;52.464;13.428;2023-12-29T03:05:00;8.50;99.90
81488;DHT22;70897;52.464;13.428;2023-12-29T03:07:45;8.40;99.90
81488;DHT22;70897;52.464;13.428;2023-12-29T03:10:30;8.30;99.90
81488;DHT22;70897;52.464;13.428;2023-12-29T03:13:15;8.30;99.90
81488;DHT22;70897;52.464;13.428;2023-12-29T03:16:00;8.30;99.90
81488;DHT22;70897;52.464;13.428;2023-12-29T03:18:45;8.40;99.90
81488;DHT22;70897;52.464;13.428;2023-12-29T03:21:32;8.40;99.90
81488;DHT22;70897;52.464;13.428;2023-12-29T03:24:17;8.30;99.90
81488;DHT22;70897;52.464;13.428;2023-12-29T03:27:02;8.50;99.90
81488;DHT22;70897;52.464;13.428;2023-12-29T03:29:47;8.50;99.90
81488;DHT22;70897;52.464;13.428;2023-12-29T03:32:32;8.40;99.90
81488;DHT22;70897;52.464;13.428;2023-12-29T03:35:18;8.30;99.90
81488;DHT22;70897;52.464;13.428;2023-12-29T03:38:03;8.40;99.90
81488;DHT22;70897;52.464;13.428;2023-12-29T03:40:48;8.50;99.90
81488;DHT22;70897;52.464;13.428;2023-12-29T03:43:33;8.50;99.90
81488;DHT22;70897;52.464;13.428;2023-12-29T03:46:22;8.60;99.90
81488;DHT22;70897;52.464;13.428;2023-12-29T03:49:08;8.70;99.90
81488;DHT22;70897;52.464;13.428;2023-12-29T03:51:53;8.70;99.90
81488;DHT22;70897;52.464;13.428;2023-12-29T03:54:38;8.70;99.90
81488;DHT22;70897;52.464;13.428;2023-12-29T03:57:23;8.70;99.90
81488;DHT22;70897;52.464;13.428;2023-12-29T04:00:12;8.70;99.90
81488;DHT22;70897;52.464;13.428;2023-12-29T04:02:58;8.80;99.90
81488;DHT22;70897;52.464;13.428;2023-12-29T04:05:43;8.80;99.90
81488;DHT22;70897;52.464;13.428;2023-12-29T04:08:28;8.80;99.90
81488;DHT22;70897;52.464;13.428;2023-12-29T04:11:13;8.80;99.90
81488;DHT22;70897;52.464;13.428;2023-12-29T04:13:58;8.90;99.90
81488;DHT22;70897;52.464;13.428;2023-12-29T04:16:42;8.80;99.90
81488;DHT22;70897;52.464;13.428;2023-12-29T04:19:27;8.80;99.90
81488;DHT22;70897;52.464;13.428;2023-12-29T04:22:12;8.70;99.90
81488;DHT22;70897;52.464;13.428;2023-12-29T04:24:57;8.70;99.90
81488;DHT22;70897;52.464;13.428;2023-12-29T04:27:42;8.70;99.90
81488;DHT22;70897;52.464;13.428;2023-12-29T04:30:27;8.70;99.90
81488;DHT22;70897;52.464;13.428;2023-12-29T04:33:14;8.60;99.90
81488;DHT22;70897;52.464;13.428;2023-12-29T04:35:59;8.70;99.90
81488;DHT22;70897;52.464;13.428;2023-12-29T04:38:44;8.70;99.90
81488;DHT22;70897;52.464;13.428;2023-12-29T04:41:29;8.80;99.90
81488;DHT22;70897;52.464;13.428;2023-12-29T04:44:14;8.80;99.90
81488;DHT22;70897;52.464;13.428;2023-12-29T04:46:59;8.80;99.90
81488;DHT22;70897;52.464;13.428;2023-12-29T04:49:45;8.80;99.90
81488;DHT22;70897;52.464;13.428;2023-12-29T04:52:30;8.80;99.90
81488;DHT22;70897;52.464;13.428;2023-12-29T04:55:15;8.80;99.90
81488;DHT22;70897;52.464;13.428;2023-12-29T04:58:00;8.70;99.90
81488;DHT22;70897;52.464;13.428;2023-12-29T05:00:45;8.80;99.90
81488;DHT22;70897;52.464;13.428;2023-12-29T05:03:30;8.90;99.90
81488;DHT22;70897;52.464;13.428;2023-12-29T05:06:15;8.90;99.90
81488;DHT22;70897;52.464;13.428;2023-12-29T05:09:00;8.90;99.90
81488;DHT22;70897;52.464;13.428;2023-12-29T05:11:45;8.90;99.90
81488;DHT22;70897;52.464;13.428;2023-12-29T05:14:30;8.90;99.90
81488;DHT22;70897;52.464;13.428;2023-12-29T05:17:15;8.90;99.90
81488;DHT22;70897;52.464;13.428;2023-12-29T05:20:00;9.00;99.90
81488;DHT22;70897;52.464;13.428;2023-12-29T05:22:45;8.90;99.90
81488;DHT22;70897;52.464;13.428;2023-12-29T05:25:30;8.90;99.90
81488;DHT22;70897;52.464;13.428;2023-12-29T05:28:15;8.90;99.90
81488;DHT22;70897;52.464;13.428;2023-12-29T05:31:00;8.90;99.90
81488;DHT22;70897;52.464;13.428;2023-12-29T05:33:48;8.90;99.90
81488;DHT22;70897;52.464;13.428;2023-12-29T05:36:36;9.00;99.90
81488;DHT22;70897;52.464;13.428;2023-12-29T05:39:22;9.00;99.90
81488;DHT22;70897;52.464;13.428;2023-12-29T05:42:07;9.10;99.90
81488;DHT22;70897;52.464;13.428;2023-12-29T05:44:51;9.10;99.90
81488;DHT22;70897;52.464;13.428;2023-12-29T05:47:36;9.10;99.90
81488;DHT22;70897;52.464;13.428;2023-12-29T05:50:21;9.10;99.90
81488;DHT22;70897;52.464;13.428;2023-12-29T05:53:06;9.10;99.90
81488;DHT22;70897;52.464;13.428;2023-12-29T05:55:52;9.20;99.90
81488;DHT22;70897;52.464;13.428;2023-12-29T05:58:37;9.20;99.90
81488;DHT22;70897;52.464;13.428;2023-12-29T06:01:22;9.20;99.90
81488;DHT22;70897;52.464;13.428;2023-12-29T06:04:07;9.10;99.90
81488;DHT22;70897;52.464;13.428;2023-12-29T06:06:52;9.00;99.90
81488;DHT22;70897;52.464;13.428;2023-12-29T06:09:37;9.00;99.90
81488;DHT22;70897;52.464;13.428;2023-12-29T06:12:22;9.10;99.90
81488;DHT22;70897;52.464;13.428;2023-12-29T06:15:08;9.10;99.90
81488;DHT22;70897;52.464;13.428;2023-12-29T06:17:53;9.10;99.90
81488;DHT22;70897;52.464;13.428;2023-12-29T06:20:38;9.10;99.90
81488;DHT22;70897;52.464;13.428;2023-12-29T06:23:23;9.20;99.90
81488;DHT22;70897;52.464;13.428;2023-12-29T06:26:17;9.20;99.80
81488;DHT22;70897;52.464;13.428;2023-12-29T06:29:03;9.30;99.60
81488;DHT22;70897;52.464;13.428;2023-12-29T06:31:47;9.30;99.10
81488;DHT22;70897;52.464;13.428;2023-12-29T06:34:32;9.30;99.20
81488;DHT22;70897;52.464;13.428;2023-12-29T06:37:17;9.30;99.10
81488;DHT22;70897;52.464;13.428;2023-12-29T06:40:03;9.40;98.90
81488;DHT22;70897;52.464;13.428;2023-12-29T06:42:48;9.40;98.80
81488;DHT22;70897;52.464;13.428;2023-12-29T06:45:33;9.40;98.90
81488;DHT22;70897;52.464;13.428;2023-12-29T06:48:18;9.40;98.60
81488;DHT22;70897;52.464;13.428;2023-12-29T06:51:03;9.40;98.80
81488;DHT22;70897;52.464;13.428;2023-12-29T06:53:49;9.50;98.70
81488;DHT22;70897;52.464;13.428;2023-12-29T06:56:34;9.50;98.40
81488;DHT22;70897;52.464;13.428;2023-12-29T06:59:19;9.60;98.10
81488;DHT22;70897;52.464;13.428;2023-12-29T07:02:05;9.50;98.20
81488;DHT22;70897;52.464;13.428;2023-12-29T07:04:50;9.60;98.00
81488;DHT22;70897;52.464;13.428;2023-12-29T07:07:35;9.60;98.50
81488;DHT22;70897;52.464;13.428;2023-12-29T07:10:20;9.50;98.30
81488;DHT22;70897;52.464;13.428;2023-12-29T07:13:05;9.60;98.60
81488;DHT22;70897;52.464;13.428;2023-12-29T07:15:50;9.50;98.70
81488;DHT22;70897;52.464;13.428;2023-12-29T07:18:36;9.60;98.50
81488;DHT22;70897;52.464;13.428;2023-12-29T07:21:21;9.60;98.30
81488;DHT22;70897;52.464;13.428;2023-12-29T07:24:06;9.70;98.00
81488;DHT22;70897;52.464;13.428;2023-12-29T07:26:51;9.70;98.10
81488;DHT22;70897;52.464;13.428;2023-12-29T07:29:36;9.60;98.30
81488;DHT22;70897;52.464;13.428;2023-12-29T07:32:21;9.60;98.40
81488;DHT22;70897;52.464;13.428;2023-12-29T07:35:06;9.60;98.50
81488;DHT22;70897;52.464;13.428;2023-12-29T07:37:51;9.60;98.30
81488;DHT22;70897;52.464;13.428;2023-12-29T07:40:36;9.70;98.40
81488;DHT22;70897;52.464;13.428;2023-12-29T07:43:22;9.70;97.90
81488;DHT22;70897;52.464;13.428;2023-12-29T07:46:07;9.70;98.10
81488;DHT22;70897;52.464;13.428;2023-12-29T07:48:52;9.60;98.30
81488;DHT22;70897;52.464;13.428;2023-12-29T07:51:41;9.60;98.40
81488;DHT22;70897;52.464;13.428;2023-12-29T07:54:26;9.60;98.50
81488;DHT22;70897;52.464;13.428;2023-12-29T07:57:11;9.60;98.50
81488;DHT22;70897;52.464;13.428;2023-12-29T07:59:56;9.60;98.40
81488;DHT22;70897;52.464;13.428;2023-12-29T08:02:41;9.70;98.30
81488;DHT22;70897;52.464;13.428;2023-12-29T08:05:26;9.80;98.00
81488;DHT22;70897;52.464;13.428;2023-12-29T08:08:12;9.70;98.10
81488;DHT22;70897;52.464;13.428;2023-12-29T08:10:57;9.90;97.60
81488;DHT22;70897;52.464;13.428;2023-12-29T08:13:44;10.10;96.50
81488;DHT22;70897;52.464;13.428;2023-12-29T08:16:29;10.30;96.00
81488;DHT22;70897;52.464;13.428;2023-12-29T08:19:14;10.60;95.30
81488;DHT22;70897;52.464;13.428;2023-12-29T08:22:00;11.00;94.00
81488;DHT22;70897;52.464;13.428;2023-12-29T08:24:45;11.10;92.80
81488;DHT22;70897;52.464;13.428;2023-12-29T08:27:30;11.10;92.70
81488;DHT22;70897;52.464;13.428;2023-12-29T08:30:15;10.90;92.80
81488;DHT22;70897;52.464;13.428;2023-12-29T08:33:00;10.90;93.40
81488;DHT22;70897;52.464;13.428;2023-12-29T08:35:45;11.20;92.80
81488;DHT22;70897;52.464;13.428;2023-12-29T08:38:30;11.40;91.80
81488;DHT22;70897;52.464;13.428;2023-12-29T08:41:18;11.40;91.30
81488;DHT22;70897;52.464;13.428;2023-12-29T08:44:03;11.50;91.60
81488;DHT22;70897;52.464;13.428;2023-12-29T08:46:48;11.90;90.30
81488;DHT22;70897;52.464;13.428;2023-12-29T08:49:35;12.20;89.50
81488;DHT22;70897;52.464;13.428;2023-12-29T08:52:21;12.50;85.40
81488;DHT22;70897;52.464;13.428;2023-12-29T08:55:05;12.20;85.90
81488;DHT22;70897;52.464;13.428;2023-12-29T08:57:50;11.80;88.40
81488;DHT22;70897;52.464;13.428;2023-12-29T09:00:36;11.60;89.90
81488;DHT22;70897;52.464;13.428;2023-12-29T09:03:21;11.30;90.40
81488;DHT22;70897;52.464;13.428;2023-12-29T09:06:06;11.00;91.30
81488;DHT22;70897;52.464;13.428;2023-12-29T09:08:53;10.90;92.00
81488;DHT22;70897;52.464;13.428;2023-12-29T09:11:44;10.80;92.40
81488;DHT22;70897;52.464;13.428;2023-12-29T09:14:29;11.00;92.60
81488;DHT22;70897;52.464;13.428;2023-12-29T09:17:15;11.40;92.20
81488;DHT22;70897;52.464;13.428;2023-12-29T09:20:02;11.90;90.60
81488;DHT22;70897;52.464;13.428;2023-12-29T09:22:48;12.00;88.90
81488;DHT22;70897;52.464;13.428;2023-12-29T09:25:33;12.20;88.40
81488;DHT22;70897;52.464;13.428;2023-12-29T09:28:18;12.50;86.50
81488;DHT22;70897;52.464;13.428;2023-12-29T09:31:03;12.50;85.30
81488;DHT22;70897;52.464;13.428;2023-12-29T09:33:48;13.20;83.30
81488;DHT22;70897;52.464;13.428;2023-12-29T09:36:33;13.10;80.50
81488;DHT22;70897;52.464;13.428;2023-12-29T09:39:18;12.90;81.40
81488;DHT22;70897;52.464;13.428;2023-12-29T09:42:03;12.70;82.10
81488;DHT22;70897;52.464;13.428;2023-12-29T09:44:51;12.70;83.00
81488;DHT22;70897;52.464;13.428;2023-12-29T09:47:40;12.70;82.60
81488;DHT22;70897;52.464;13.428;2023-12-29T09:50:25;12.50;82.80
81488;DHT22;70897;52.464;13.428;2023-12-29T09:53:12;12.60;82.70
81488;DHT22;70897;52.464;13.428;2023-12-29T09:55:59;12.40;83.20
81488;DHT22;70897;52.464;13.428;2023-12-29T09:58:49;12.30;84.30
81488;DHT22;70897;52.464;13.428;2023-12-29T10:01:37;12.80;82.80
81488;DHT22;70897;52.464;13.428;2023-12-29T10:04:23;12.70;82.00
81488;DHT22;70897;52.464;13.428;2023-12-29T10:07:12;12.70;82.40
81488;DHT22;70897;52.464;13.428;2023-12-29T10:10:00;12.50;82.60
81488;DHT22;70897;52.464;13.428;2023-12-29T10:12:50;12.20;84.40
81488;DHT22;70897;52.464;13.428;2023-12-29T10:15:37;12.00;85.20
81488;DHT22;70897;52.464;13.428;2023-12-29T10:18:45;11.90;85.70
81488;DHT22;70897;52.464;13.428;2023-12-29T10:21:43;12.20;85.20
81488;DHT22;70897;52.464;13.428;2023-12-29T10:24:31;12.60;83.20
81488;DHT22;70897;52.464;13.428;2023-12-29T10:27:16;13.10;80.40
81488;DHT22;70897;52.464;13.428;2023-12-29T10:30:01;13.20;78.70
81488;DHT22;70897;52.464;13.428;2023-12-29T10:32:52;13.10;79.50
81488;DHT22;70897;52.464;13.428;2023-12-29T10:35:37;13.20;78.80
81488;DHT22;70897;52.464;13.428;2023-12-29T10:38:24;13.20;78.90
81488;DHT22;70897;52.464;13.428;2023-12-29T10:41:11;13.10;79.00
81488;DHT22;70897;52.464;13.428;2023-12-29T10:44:06;12.80;79.40
81488;DHT22;70897;52.464;13.428;2023-12-29T10:46:51;12.60;80.70
81488;DHT22;70897;52.464;13.428;2023-12-29T10:49:36;12.50;81.80
81488;DHT22;70897;52.464;13.428;2023-12-29T10:52:23;12.50;81.70
81488;DHT22;70897;52.464;13.428;2023-12-29T10:55:09;12.40;81.40
81488;DHT22;70897;52.464;13.428;2023-12-29T10:58:00;12.40;81.90
81488;DHT22;70897;52.464;13.428;2023-12-29T11:00:45;12.40;81.80
81488;DHT22;70897;52.464;13.428;2023-12-29T11:03:31;13.30;79.10
81488;DHT22;70897;52.464;13.428;2023-12-29T11:06:17;13.50;76.90
81488;DHT22;70897;52.464;13.428;2023-12-29T11:09:02;13.10;77.40
81488;DHT22;70897;52.464;13.428;2023-12-29T11:11:47;12.80;78.60
81488;DHT22;70897;52.464;13.428;2023-12-29T11:14:32;12.60;79.80
81488;DHT22;70897;52.464;13.428;2023-12-29T11:17:18;12.40;81.40
81488;DHT22;70897;52.464;13.428;2023-12-29T11:20:04;12.20;81.90
81488;DHT22;70897;52.464;13.428;2023-12-29T11:22:50;12.10;82.90
81488;DHT22;70897;52.464;13.428;2023-12-29T11:25:36;12.00;83.50
81488;DHT22;70897;52.464;13.428;2023-12-29T11:28:21;12.00;84.40
81488;DHT22;70897;52.464;13.428;2023-12-29T11:31:06;11.90;84.90
81488;DHT22;70897;52.464;13.428;2023-12-29T11:33:57;11.80;85.20
81488;DHT22;70897;52.464;13.428;2023-12-29T11:36:46;11.80;85.60
81488;DHT22;70897;52.464;13.428;2023-12-29T11:39:50;11.80;85.60
81488;DHT22;70897;52.464;13.428;2023-12-29T11:42:40;11.80;86.10
81488;DHT22;70897;52.464;13.428;2023-12-29T11:45:30;11.70;86.10
81488;DHT22;70897;52.464;13.428;2023-12-29T11:51:44;11.70;86.80
81488;DHT22;70897;52.464;13.428;2023-12-29T11:54:29;11.70;87.40
81488;DHT22;70897;52.464;13.428;2023-12-29T11:57:31;11.60;87.60
81488;DHT22;70897;52.464;13.428;2023-12-29T12:00:16;11.60;88.10
81488;DHT22;70897;52.464;13.428;2023-12-29T12:03:16;11.60;88.30
81488;DHT22;70897;52.464;13.428;2023-12-29T12:06:02;11.70;88.40
81488;DHT22;70897;52.464;13.428;2023-12-29T12:08:48;11.60;88.70
81488;DHT22;70897;52.464;13.428;2023-12-29T12:11:43;11.60;89.30
81488;DHT22;70897;52.464;13.428;2023-12-29T12:14:50;11.60;89.50
81488;DHT22;70897;52.464;13.428;2023-12-29T12:17:35;11.50;90.00
81488;DHT22;70897;52.464;13.428;2023-12-29T12:20:21;11.50;90.00
81488;DHT22;70897;52.464;13.428;2023-12-29T12:23:17;11.40;90.60
81488;DHT22;70897;52.464;13.428;2023-12-29T12:26:05;11.40;90.40
81488;DHT22;70897;52.464;13.428;2023-12-29T12:28:53;11.40;90.70
81488;DHT22;70897;52.464;13.428;2023-12-29T12:31:53;11.30;91.90
81488;DHT22;70897;52.464;13.428;2023-12-29T12:34:38;11.00;93.80
81488;DHT22;70897;52.464;13.428;2023-12-29T12:37:27;10.80;94.70
81488;DHT22;70897;52.464;13.428;2023-12-29T12:40:24;10.80;94.60
81488;DHT22;70897;52.464;13.428;2023-12-29T12:43:13;10.70;95.40
81488;DHT22;70897;52.464;13.428;2023-12-29T12:46:02;10.70;96.00
81488;DHT22;70897;52.464;13.428;2023-12-29T12:48:47;10.60;96.30
81488;DHT22;70897;52.464;13.428;2023-12-29T12:51:34;10.60;96.20
81488;DHT22;70897;52.464;13.428;2023-12-29T12:54:19;10.70;96.40
81488;DHT22;70897;52.464;13.428;2023-12-29T12:57:05;10.70;97.00
81488;DHT22;70897;52.464;13.428;2023-12-29T12:59:51;10.60;99.40
81488;DHT22;70897;52.464;13.428;2023-12-29T13:02:38;10.30;99.90
81488;DHT22;70897;52.464;13.428;2023-12-29T13:05:22;10.30;99.90
81488;DHT22;70897;52.464;13.428;2023-12-29T13:08:07;10.20;99.90
81488;DHT22;70897;52.464;13.428;2023-12-29T13:10:52;10.20;99.90
81488;DHT22;70897;52.464;13.428;2023-12-29T13:13:42;10.20;99.90
81488;DHT22;70897;52.464;13.428;2023-12-29T13:16:32;10.30;99.90
81488;DHT22;70897;52.464;13.428;2023-12-29T13:19:22;10.30;99.90
81488;DHT22;70897;52.464;13.428;2023-12-29T13:22:10;10.40;99.90
81488;DHT22;70897;52.464;13.428;2023-12-29T13:24:56;10.50;99.90
81488;DHT22;70897;52.464;13.428;2023-12-29T13:27:41;10.50;99.90
81488;DHT22;70897;52.464;13.428;2023-12-29T13:30:26;10.50;99.90
81488;DHT22;70897;52.464;13.428;2023-12-29T13:33:32;10.60;99.90
81488;DHT22;70897;52.464;13.428;2023-12-29T13:36:41;10.60;99.90
81488;DHT22;70897;52.464;13.428;2023-12-29T13:39:30;10.70;99.90
81488;DHT22;70897;52.464;13.428;2023-12-29T13:42:19;10.70;99.90
81488;DHT22;70897;52.464;13.428;2023-12-29T13:45:06;10.70;99.90
81488;DHT22;70897;52.464;13.428;2023-12-29T13:47:52;10.80;99.90
81488;DHT22;70897;52.464;13.428;2023-12-29T13:50:39;10.70;99.90
81488;DHT22;70897;52.464;13.428;2023-12-29T13:53:25;10.80;99.90
81488;DHT22;70897;52.464;13.428;2023-12-29T13:56:11;10.80;99.90
81488;DHT22;70897;52.464;13.428;2023-12-29T13:58:56;10.70;99.90
81488;DHT22;70897;52.464;13.428;2023-12-29T14:01:41;10.80;99.90
81488;DHT22;70897;52.464;13.428;2023-12-29T14:04:26;10.80;99.90
81488;DHT22;70897;52.464;13.428;2023-12-29T14:07:11;10.70;99.90
81488;DHT22;70897;52.464;13.428;2023-12-29T14:09:57;10.70;99.90
81488;DHT22;70897;52.464;13.428;2023-12-29T14:12:43;10.70;99.90
81488;DHT22;70897;52.464;13.428;2023-12-29T14:15:34;10.70;99.90
81488;DHT22;70897;52.464;13.428;2023-12-29T14:21:27;10.70;99.90
81488;DHT22;70897;52.464;13.428;2023-12-29T14:24:16;10.80;99.90
81488;DHT22;70897;52.464;13.428;2023-12-29T14:27:01;10.80;99.90
81488;DHT22;70897;52.464;13.428;2023-12-29T14:29:47;10.80;99.90
81488;DHT22;70897;52.464;13.428;2023-12-29T14:32:33;10.90;99.90
81488;DHT22;70897;52.464;13.428;2023-12-29T14:35:18;10.90;99.90
81488;DHT22;70897;52.464;13.428;2023-12-29T14:38:03;10.90;99.60
81488;DHT22;70897;52.464;13.428;2023-12-29T14:40:48;10.90;99.60
81488;DHT22;70897;52.464;13.428;2023-12-29T14:43:33;10.90;99.10
81488;DHT22;70897;52.464;13.428;2023-12-29T14:46:18;10.90;99.20
81488;DHT22;70897;52.464;13.428;2023-12-29T14:49:04;10.90;99.20
81488;DHT22;70897;52.464;13.428;2023-12-29T14:51:49;10.90;99.30
81488;DHT22;70897;52.464;13.428;2023-12-29T14:54:34;10.90;99.20
81488;DHT22;70897;52.464;13.428;2023-12-29T14:57:19;10.90;99.10
81488;DHT22;70897;52.464;13.428;2023-12-29T15:00:05;11.00;98.70
81488;DHT22;70897;52.464;13.428;2023-12-29T15:02:50;11.00;98.60
81488;DHT22;70897;52.464;13.428;2023-12-29T15:05:35;10.80;99.90
81488;DHT22;70897;52.464;13.428;2023-12-29T15:08:20;10.60;99.90
81488;DHT22;70897;52.464;13.428;2023-12-29T15:11:06;10.50;99.90
81488;DHT22;70897;52.464;13.428;2023-12-29T15:13:52;10.40;99.90
81488;DHT22;70897;52.464;13.428;2023-12-29T15:16:37;10.50;99.90
81488;DHT22;70897;52.464;13.428;2023-12-29T15:19:22;10.60;99.90
81488;DHT22;70897;52.464;13.428;2023-12-29T15:22:07;10.60;99.90
81488;DHT22;70897;52.464;13.428;2023-12-29T15:24:52;10.60;99.90
81488;DHT22;70897;52.464;13.428;2023-12-29T15:27:37;10.50;99.90
81488;DHT22;70897;52.464;13.428;2023-12-29T15:30:22;10.40;99.90
81488;DHT22;70897;52.464;13.428;2023-12-29T15:33:07;10.50;99.90
81488;DHT22;70897;52.464;13.428;2023-12-29T15:35:52;10.70;99.90
81488;DHT22;70897;52.464;13.428;2023-12-29T15:38:37;10.70;99.90
81488;DHT22;70897;52.464;13.428;2023-12-29T15:41:22;10.70;99.90
81488;DHT22;70897;52.464;13.428;2023-12-29T15:44:07;10.60;99.90
81488;DHT22;70897;52.464;13.428;2023-12-29T15:46:53;10.70;99.90
81488;DHT22;70897;52.464;13.428;2023-12-29T15:49:39;10.70;99.90
81488;DHT22;70897;52.464;13.428;2023-12-29T15:52:24;10.50;99.90
81488;DHT22;70897;52.464;13.428;2023-12-29T15:55:11;10.40;99.90
81488;DHT22;70897;52.464;13.428;2023-12-29T15:57:56;10.40;99.90
81488;DHT22;70897;52.464;13.428;2023-12-29T16:00:41;10.30;99.90
81488;DHT22;70897;52.464;13.428;2023-12-29T16:03:31;10.30;99.90
81488;DHT22;70897;52.464;13.428;2023-12-29T16:06:19;10.40;99.90
81488;DHT22;70897;52.464;13.428;2023-12-29T16:09:07;10.40;99.90
81488;DHT22;70897;52.464;13.428;2023-12-29T16:11:52;10.30;99.90
81488;DHT22;70897;52.464;13.428;2023-12-29T16:14:39;10.30;99.90
81488;DHT22;70897;52.464;13.428;2023-12-29T16:17:24;10.30;99.90
81488;DHT22;70897;52.464;13.428;2023-12-29T16:20:10;10.30;99.90
81488;DHT22;70897;52.464;13.428;2023-12-29T16:22:55;10.20;99.90
81488;DHT22;70897;52.464;13.428;2023-12-29T16:25:40;10.10;99.90
81488;DHT22;70897;52.464;13.428;2023-12-29T16:28:25;10.10;99.90
81488;DHT22;70897;52.464;13.428;2023-12-29T16:31:10;10.00;99.90
81488;DHT22;70897;52.464;13.428;2023-12-29T16:33:55;10.10;99.90
81488;DHT22;70897;52.464;13.428;2023-12-29T16:36:41;10.10;99.90
81488;DHT22;70897;52.464;13.428;2023-12-29T16:39:27;10.10;99.90
81488;DHT22;70897;52.464;13.428;2023-12-29T16:42:12;10.00;99.90
81488;DHT22;70897;52.464;13.428;2023-12-29T16:45:01;9.90;99.90
81488;DHT22;70897;52.464;13.428;2023-12-29T16:47:47;9.90;99.90
81488;DHT22;70897;52.464;13.428;2023-12-29T16:50:32;9.80;99.90
81488;DHT22;70897;52.464;13.428;2023-12-29T16:53:17;9.90;99.90
81488;DHT22;70897;52.464;13.428;2023-12-29T16:56:03;9.90;99.90
81488;DHT22;70897;52.464;13.428;2023-12-29T16:58:48;10.00;99.90
81488;DHT22;70897;52.464;13.428;2023-12-29T17:01:33;10.00;99.90
81488;DHT22;70897;52.464;13.428;2023-12-29T17:04:18;10.00;99.90
81488;DHT22;70897;52.464;13.428;2023-12-29T17:07:03;10.00;99.90
81488;DHT22;70897;52.464;13.428;2023-12-29T17:09:48;10.00;99.90
81488;DHT22;70897;52.464;13.428;2023-12-29T17:12:33;10.00;99.90
81488;DHT22;70897;52.464;13.428;2023-12-29T17:15:18;10.00;99.90
81488;DHT22;70897;52.464;13.428;2023-12-29T17:18:06;10.00;99.90
81488;DHT22;70897;52.464;13.428;2023-12-29T17:20:51;10.00;99.90
81488;DHT22;70897;52.464;13.428;2023-12-29T17:23:36;10.00;99.90
81488;DHT22;70897;52.464;13.428;2023-12-29T17:26:21;10.10;99.90
81488;DHT22;70897;52.464;13.428;2023-12-29T17:29:07;10.10;99.90